Time;durP1;ratioP1;P1;durP2;ratioP2;P2;SDS_P1;SDS_P2;PMS_P1;PMS_P2;Temp;Humidity;BMP_temperature;BMP_pressure;BME280_temperature;BME280_humidity;BME280_pressure;Samples;Min_cycle;Max_cycle;Signal;HPM_P1;HPM_P2
2023/01/12 00:02:21;;;;;;;7.70;2.67;;;;;;;9.03;100.00;100884.75;4716840;30;20074;-70
2023/01/12 00:04:49;;;;;;;11.23;3.38;;;;;;;9.02;100.00;100891.25;4691437;30;20060;-70
2023/01/12 00:07:17;;;;;;;11.38;3.08;;;;;;;9.06;100.00;100881.53;4706027;30;20072;-70
2023/01/12 00:09:45;;;;;;;7.97;3.08;;;;;;;9.04;100.00;100870.09;4720284;30;20457;-71
2023/01/12 00:12:13;;;;;;;13.10;3.63;;;;;;;9.03;100.00;100865.75;4702050;30;20081;-70
2023/01/12 00:14:41;;;;;;;11.07;3.30;;;;;;;9.01;100.00;100870.59;4702540;30;20062;-71
2023/01/12 00:17:10;;;;;;;11.98;3.63;;;;;;;9.00;100.00;100868.97;4704616;30;20049;-69
2023/01/12 00:19:39;;;;;;;13.43;3.50;;;;;;;9.02;100.00;100864.09;4704348;30;20515;-71
2023/01/12 00:22:16;;;;;;;12.30;3.97;;;;;;;9.06;100.00;100862.50;4706072;30;20087;-70
2023/01/12 00:24:46;;;;;;;9.75;3.20;;;;;;;9.06;100.00;100855.16;4720336;30;20052;-70
2023/01/12 00:27:21;;;;;;;11.40;3.85;;;;;;;9.05;100.00;100855.44;4706418;30;20526;-70
2023/01/12 00:29:50;;;;;;;10.48;3.15;;;;;;;9.10;100.00;100850.88;4723032;30;20049;-70
2023/01/12 00:32:19;;;;;;;12.23;3.53;;;;;;;9.08;100.00;100852.19;4719988;30;20514;-70
2023/01/12 00:34:46;;;;;;;12.02;3.40;;;;;;;9.11;100.00;100851.69;4718522;30;20421;-71
2023/01/12 00:37:15;;;;;;;10.68;3.10;;;;;;;9.14;100.00;100840.31;4704329;30;20049;-71
2023/01/12 00:39:43;;;;;;;11.13;3.58;;;;;;;9.15;100.00;100831.88;4719603;30;20056;-70
2023/01/12 00:45:23;;;;;;;11.65;4.13;;;;;;;9.19;100.00;100824.03;4719929;30;20055;-70
2023/01/12 00:47:52;;;;;;;9.93;3.08;;;;;;;9.21;100.00;100829.19;4720458;30;20487;-71
2023/01/12 00:50:19;;;;;;;10.50;3.40;;;;;;;9.22;100.00;100815.34;4705166;30;20056;-71
2023/01/12 00:52:47;;;;;;;12.60;4.07;;;;;;;9.13;100.00;100820.44;4704644;30;20411;-71
2023/01/12 00:55:15;;;;;;;12.13;3.90;;;;;;;9.10;100.00;100828.31;4703804;30;20494;-71
2023/01/12 00:57:43;;;;;;;11.75;3.55;;;;;;;9.14;100.00;100834.88;4704530;30;20057;-69
2023/01/12 01:00:11;;;;;;;11.35;3.30;;;;;;;9.15;100.00;100825.63;4704820;30;20064;-71
2023/01/12 01:02:38;;;;;;;12.07;4.50;;;;;;;9.09;100.00;100810.34;4719335;30;20049;-71
2023/01/12 01:05:07;;;;;;;11.20;3.38;;;;;;;9.15;100.00;100801.16;4703598;30;20057;-69
2023/01/12 01:07:34;;;;;;;9.65;2.92;;;;;;;9.18;100.00;100797.91;4719875;30;20064;-70
2023/01/12 01:10:02;;;;;;;9.05;3.45;;;;;;;9.14;100.00;100802.25;4720423;30;20049;-70
2023/01/12 01:12:30;;;;;;;11.77;3.38;;;;;;;9.16;100.00;100805.50;4704168;30;20057;-71
2023/01/12 01:14:57;;;;;;;12.07;3.70;;;;;;;9.15;100.00;100793.81;4703793;30;20080;-71
2023/01/12 01:17:27;;;;;;;7.13;2.97;;;;;;;9.14;100.00;100794.09;4720391;30;20061;-70
2023/01/12 01:19:55;;;;;;;11.90;3.45;;;;;;;9.21;100.00;100800.09;4720460;30;20080;-70
2023/01/12 01:22:22;;;;;;;12.55;4.05;;;;;;;9.20;100.00;100789.50;4704341;30;20363;-72
2023/01/12 01:24:50;;;;;;;11.50;3.45;;;;;;;9.17;100.00;100785.41;4719474;30;20460;-70
2023/01/12 01:27:18;;;;;;;8.27;2.88;;;;;;;9.20;100.00;100776.72;4718429;30;20121;-71
2023/01/12 01:29:46;;;;;;;10.20;3.25;;;;;;;9.24;100.00;100780.59;4705212;30;20057;-72
2023/01/12 01:32:13;;;;;;;11.23;3.65;;;;;;;9.21;100.00;100781.06;4690803;30;20057;-71
2023/01/12 01:34:41;;;;;;;12.73;3.10;;;;;;;9.18;100.00;100787.03;4690864;30;20053;-72
2023/01/12 01:37:10;;;;;;;11.52;3.35;;;;;;;9.18;100.00;100776.16;4718216;30;20061;-73
2023/01/12 01:39:38;;;;;;;12.07;3.67;;;;;;;9.16;100.00;100767.44;4720011;30;20457;-72
2023/01/12 01:42:26;;;;;;;9.18;2.83;;;;;;;9.18;100.00;100766.09;4722992;30;20057;-71
2023/01/12 01:44:56;;;;;;;9.40;3.10;;;;;;;9.18;100.00;100762.56;4718287;30;20119;-71
2023/01/12 01:47:38;;;;;;;11.90;3.42;;;;;;;9.23;100.00;100762.63;4691778;30;20067;-70
2023/01/12 01:50:18;;;;;;;9.38;2.88;;;;;;;9.20;100.00;100757.72;4703814;30;20061;-70
2023/01/12 01:52:50;;;;;;;10.98;3.80;;;;;;;9.15;100.00;100760.38;4719474;30;20057;-71
2023/01/12 01:55:32;;;;;;;12.45;3.75;;;;;;;9.19;100.00;100753.38;4690334;30;20427;-70
2023/01/12 01:58:13;;;;;;;9.95;3.03;;;;;;;9.20;100.00;100754.97;4711501;30;20084;-71
2023/01/12 02:00:42;;;;;;;10.60;3.40;;;;;;;9.16;100.00;100752.00;4718472;30;20140;-70
2023/01/12 02:03:10;;;;;;;10.30;2.90;;;;;;;9.25;100.00;100744.16;4719244;30;20067;-71
2023/01/12 02:05:40;;;;;;;12.77;3.70;;;;;;;9.24;100.00;100750.69;4719672;30;20057;-70
2023/01/12 02:08:21;;;;;;;12.05;3.45;;;;;;;9.23;100.00;100743.59;4702431;30;20059;-71
2023/01/12 02:10:51;;;;;;;13.20;3.85;;;;;;;9.18;100.00;100732.69;4703987;30;20061;-71
2023/01/12 02:16:26;;;;;;;11.90;3.38;;;;;;;9.18;100.00;100727.25;4704133;30;20088;-69
2023/01/12 02:18:56;;;;;;;12.27;3.83;;;;;;;9.17;100.00;100731.06;4714150;30;20053;-71
2023/01/12 02:21:59;;;;;;;13.60;3.78;;;;;;;9.15;100.00;100727.78;4702122;30;20054;-71
2023/01/12 02:24:30;;;;;;;12.43;4.00;;;;;;;9.13;100.00;100725.31;4701064;30;20123;-70
2023/01/12 02:27:22;;;;;;;9.27;2.85;;;;;;;9.12;100.00;100714.72;4671115;30;20053;-71
2023/01/12 02:29:53;;;;;;;14.27;4.10;;;;;;;9.08;100.00;100721.75;4696917;30;20135;-71
2023/01/12 02:32:40;;;;;;;13.88;4.20;;;;;;;9.15;100.00;100716.91;4719461;30;20483;-70
2023/01/12 02:35:20;;;;;;;13.02;4.00;;;;;;;9.11;100.00;100710.34;4719367;30;20053;-70
2023/01/12 02:38:02;;;;;;;14.38;4.03;;;;;;;9.08;100.00;100700.81;4717156;30;20418;-69
2023/01/12 02:40:43;;;;;;;14.20;4.18;;;;;;;9.09;100.00;100697.03;4687989;30;20061;-71
2023/01/12 02:43:27;;;;;;;14.95;3.92;;;;;;;9.09;100.00;100690.75;4703090;30;20060;-71
2023/01/12 02:46:20;;;;;;;14.85;4.32;;;;;;;9.11;100.00;100691.31;4717533;30;20057;-70
2023/01/12 02:48:56;;;;;;;10.85;3.30;;;;;;;9.09;100.00;100680.72;4719089;30;20071;-70
2023/01/12 02:51:39;;;;;;;15.20;3.80;;;;;;;9.10;100.00;100685.06;4700627;30;20129;-70
2023/01/12 02:54:10;;;;;;;13.73;3.53;;;;;;;9.06;100.00;100674.97;4714989;30;20499;-70
2023/01/12 02:56:40;;;;;;;11.18;3.00;;;;;;;9.14;100.00;100672.59;4716535;30;20058;-71
2023/01/12 02:59:30;;;;;;;9.93;3.38;;;;;;;9.09;100.00;100669.84;4716753;30;20080;-71
2023/01/12 03:02:07;;;;;;;9.40;2.92;;;;;;;9.25;100.00;100662.59;4716639;30;20133;-70
2023/01/12 03:04:35;;;;;;;14.18;3.83;;;;;;;9.20;100.00;100669.91;4719846;30;20065;-70
2023/01/12 03:07:03;;;;;;;12.27;3.20;;;;;;;9.20;100.00;100653.59;4718179;30;20093;-70
2023/01/12 03:09:38;;;;;;;11.50;3.20;;;;;;;9.26;100.00;100647.94;4685815;30;20107;-71
2023/01/12 03:12:19;;;;;;;12.60;3.42;;;;;;;9.18;100.00;100651.13;4701257;30;20053;-70
2023/01/12 03:14:48;;;;;;;13.77;4.20;;;;;;;9.14;100.00;100644.59;4703298;30;20077;-70
2023/01/12 03:17:34;;;;;;;15.65;3.75;;;;;;;9.14;100.00;100634.53;4717476;30;20064;-70
2023/01/12 03:20:21;;;;;;;8.98;2.65;;;;;;;9.18;100.00;100630.19;4703221;30;20055;-70
2023/01/12 03:22:53;;;;;;;11.63;3.53;;;;;;;9.22;100.00;100627.78;4717672;30;20111;-70
2023/01/12 03:25:21;;;;;;;11.15;3.38;;;;;;;9.14;100.00;100618.22;4716528;30;20132;-70
2023/01/12 03:27:52;;;;;;;11.40;3.00;;;;;;;9.16;100.00;100623.38;4702420;30;20053;-69
2023/01/12 03:30:23;;;;;;;8.60;3.20;;;;;;;9.13;100.00;100608.44;4716710;30;20063;-69
2023/01/12 03:32:51;;;;;;;12.18;3.65;;;;;;;9.20;100.00;100605.47;4718261;30;20414;-70
2023/01/12 03:35:22;;;;;;;12.07;3.08;;;;;;;9.20;100.00;100593.78;4715261;30;20060;-69
2023/01/12 03:38:01;;;;;;;10.20;3.38;;;;;;;9.23;100.00;100590.53;4713623;30;20526;-70
2023/01/12 03:40:34;;;;;;;12.38;3.13;;;;;;;9.31;100.00;100604.44;4704134;30;20136;-69
2023/01/12 03:43:05;;;;;;;10.57;3.17;;;;;;;9.32;100.00;100587.03;4702736;30;20049;-69
2023/01/12 03:45:41;;;;;;;13.18;3.25;;;;;;;9.24;100.00;100590.28;4703391;30;20470;-70
2023/01/12 03:48:34;;;;;;;9.93;2.80;;;;;;;9.25;100.00;100574.78;4721167;30;20064;-69
2023/01/12 03:51:18;;;;;;;9.30;3.00;;;;;;;9.20;100.00;100572.84;4721823;30;20053;-69
2023/01/12 03:53:50;;;;;;;9.63;3.15;;;;;;;9.16;100.00;100567.16;4721550;30;20063;-69
2023/01/12 03:56:20;;;;;;;7.18;2.65;;;;;;;9.14;100.00;100553.00;4691374;30;20117;-71
2023/01/12 03:58:48;;;;;;;10.20;2.75;;;;;;;9.14;100.00;100555.72;4702550;30;20056;-69
2023/01/12 04:01:15;;;;;;;8.27;2.78;;;;;;;9.22;100.00;100531.81;4689217;30;20077;-70
2023/01/12 04:03:44;;;;;;;8.50;2.75;;;;;;;9.14;100.00;100530.44;4688826;30;20064;-69
2023/01/12 04:06:12;;;;;;;11.75;3.30;;;;;;;9.20;100.00;100523.94;4717417;30;20128;-70
2023/01/12 04:08:40;;;;;;;7.68;2.70;;;;;;;9.20;100.00;100514.97;4697558;30;20045;-70
2023/01/12 04:13:54;;;;;;;8.88;2.72;;;;;;;9.18;100.00;100499.72;4720584;30;20091;-68
2023/01/12 04:16:22;;;;;;;9.13;3.00;;;;;;;9.26;100.00;100486.69;4720565;30;20060;-69
2023/01/12 04:18:50;;;;;;;9.65;2.75;;;;;;;9.24;100.00;100481.53;4691409;30;20516;-69
2023/01/12 04:24:04;;;;;;;6.82;2.15;;;;;;;9.39;100.00;100459.00;4724676;30;20077;-69
2023/01/12 04:26:31;;;;;;;5.55;2.28;;;;;;;9.58;100.00;100440.28;4725065;30;20057;-69
2023/01/12 04:28:59;;;;;;;7.57;2.50;;;;;;;9.56;100.00;100434.28;4713139;30;20139;-69
2023/01/12 04:31:27;;;;;;;7.82;2.60;;;;;;;9.60;100.00;100436.19;4712442;30;20061;-69
2023/01/12 04:33:54;;;;;;;6.95;2.55;;;;;;;9.52;100.00;100428.56;4716386;30;20052;-69
2023/01/12 04:36:22;;;;;;;8.02;2.90;;;;;;;9.50;100.00;100432.63;4741221;30;20067;-69
2023/01/12 04:38:49;;;;;;;8.82;2.70;;;;;;;9.49;100.00;100411.97;4740848;30;20076;-69
2023/01/12 04:41:17;;;;;;;6.75;2.55;;;;;;;9.55;100.00;100397.31;4733687;30;20075;-69
2023/01/12 04:43:45;;;;;;;4.70;1.92;;;;;;;9.54;100.00;100404.63;4689499;30;20136;-68
2023/01/12 04:46:13;;;;;;;3.75;1.63;;;;;;;9.53;100.00;100394.03;4705296;30;20057;-69
2023/01/12 04:48:45;;;;;;;9.15;3.05;;;;;;;9.56;100.00;100385.31;4688894;30;20132;-70
2023/01/12 04:51:12;;;;;;;6.88;2.53;;;;;;;9.66;100.00;100355.41;4703709;30;20084;-69
2023/01/12 04:53:40;;;;;;;9.43;2.60;;;;;;;9.78;100.00;100350.47;4718824;30;20052;-69
2023/01/12 04:56:08;;;;;;;4.95;2.00;;;;;;;9.85;100.00;100341.22;4706646;30;20491;-68
2023/01/12 04:58:36;;;;;;;8.77;2.72;;;;;;;9.83;100.00;100368.72;4706658;30;20052;-70
2023/01/12 05:01:12;;;;;;;9.40;2.83;;;;;;;9.62;100.00;100367.94;4707798;30;20136;-69
2023/01/12 05:03:40;;;;;;;8.95;2.65;;;;;;;9.49;100.00;100372.00;4722748;30;20057;-69
2023/01/12 05:06:08;;;;;;;7.07;2.40;;;;;;;9.33;100.00;100360.31;4720838;30;20049;-68
2023/01/12 05:11:27;;;;;;;7.32;2.50;;;;;;;9.34;100.00;100361.94;4722542;30;20065;-69
2023/01/12 05:13:56;;;;;;;6.57;2.40;;;;;;;9.31;100.00;100365.19;4705827;30;20065;-70
2023/01/12 05:16:23;;;;;;;7.72;3.00;;;;;;;9.37;100.00;100377.69;4721966;30;20065;-70
2023/01/12 05:18:52;;;;;;;6.85;2.40;;;;;;;9.44;100.00;100372.00;4719431;30;20076;-68
2023/01/12 05:21:21;;;;;;;5.93;2.42;;;;;;;9.34;100.00;100342.91;4716207;30;20060;-68
2023/01/12 05:23:50;;;;;;;9.35;2.80;;;;;;;9.42;100.00;100340.72;4716681;30;20057;-69
2023/01/12 05:26:19;;;;;;;7.68;2.47;;;;;;;9.46;100.00;100341.81;4727065;30;20072;-69
2023/01/12 05:28:48;;;;;;;6.70;2.60;;;;;;;9.46;100.00;100352.69;4711207;30;20545;-69
2023/01/12 05:31:18;;;;;;;6.72;2.33;;;;;;;9.51;100.00;100339.09;4719338;30;20057;-69
2023/01/12 05:33:46;;;;;;;8.25;2.50;;;;;;;9.34;100.00;100359.22;4718841;30;20049;-69
2023/01/12 05:36:15;;;;;;;10.20;3.47;;;;;;;9.29;100.00;100342.91;4716257;30;20093;-69
2023/01/12 05:38:43;;;;;;;7.03;1.98;;;;;;;9.43;100.00;100345.06;4701432;30;20061;-69
2023/01/12 05:41:14;;;;;;;8.25;2.60;;;;;;;9.46;100.00;100330.94;4715890;30;20131;-69
2023/01/12 05:43:51;;;;;;;9.27;2.38;;;;;;;9.78;100.00;100328.72;4716390;30;20056;-69
2023/01/12 05:46:39;;;;;;;7.78;2.47;;;;;;;9.99;100.00;100301.47;4720037;30;20060;-69
2023/01/12 05:49:06;;;;;;;4.22;1.83;;;;;;;10.55;100.00;100303.16;4704775;30;20061;-70
2023/01/12 05:51:34;;;;;;;8.50;2.50;;;;;;;10.23;100.00;100332.41;4697599;30;20053;-70
2023/01/12 05:54:02;;;;;;;8.15;2.72;;;;;;;9.69;100.00;100346.72;4704248;30;20136;-69
2023/01/12 05:56:31;;;;;;;6.82;2.22;;;;;;;9.54;100.00;100327.66;4717693;30;20053;-70
2023/01/12 05:59:00;;;;;;;8.63;2.88;;;;;;;9.43;100.00;100336.91;4718036;30;20156;-68
2023/01/12 06:01:29;;;;;;;10.38;2.60;;;;;;;9.55;100.00;100318.44;4703319;30;20499;-69
2023/01/12 06:03:59;;;;;;;6.47;2.35;;;;;;;9.94;100.00;100318.63;4718212;30;20055;-70
2023/01/12 06:06:31;;;;;;;9.98;2.70;;;;;;;9.78;100.00;100323.28;4702475;30;20084;-69
2023/01/12 06:08:59;;;;;;;7.47;2.42;;;;;;;9.77;100.00;100318.13;4717031;30;20068;-69
2023/01/12 06:14:13;;;;;;;10.88;2.13;;;;;;;9.86;100.00;100318.38;4718315;30;20069;-70
2023/01/12 06:16:42;;;;;;;8.07;2.45;;;;;;;9.84;100.00;100320.53;4049916;30;10000100;-70
2023/01/12 06:19:10;;;;;;;6.35;2.50;;;;;;;9.57;100.00;100338.00;4684132;30;20559;-69
2023/01/12 06:21:40;;;;;;;7.28;2.58;;;;;;;9.84;100.00;100325.97;4698153;30;20117;-69
2023/01/12 06:24:07;;;;;;;8.45;2.95;;;;;;;9.57;100.00;100325.22;4698310;30;20064;-70
2023/01/12 06:26:35;;;;;;;7.85;2.75;;;;;;;9.41;100.00;100337.19;4698201;30;20061;-69
2023/01/12 06:29:05;;;;;;;8.82;2.42;;;;;;;9.42;100.00;100329.84;4709210;30;20063;-69
2023/01/12 06:31:33;;;;;;;9.25;2.50;;;;;;;9.39;100.00;100317.63;4713916;30;20107;-69
2023/01/12 06:34:01;;;;;;;9.07;2.50;;;;;;;9.36;100.00;100321.69;4714836;30;20136;-69
2023/01/12 06:36:28;;;;;;;6.57;2.15;;;;;;;9.39;100.00;100314.91;4699399;30;20068;-69
2023/01/12 06:38:56;;;;;;;5.55;2.20;;;;;;;9.55;100.00;100313.81;4714992;30;20071;-69
2023/01/12 06:44:10;;;;;;;;;;;;;;;9.48;100.00;100328.78;4697500;30;20064;-68
2023/01/12 06:46:37;;;;;;;8.85;2.20;;;;;;;9.52;100.00;100324.41;4697434;30;19942;-69
2023/01/12 06:49:05;;;;;;;9.18;2.47;;;;;;;9.50;100.00;100318.41;4697671;30;20068;-68
2023/01/12 06:51:33;;;;;;;7.38;2.22;;;;;;;9.54;100.00;100323.03;4697567;30;20112;-69
2023/01/12 06:54:01;;;;;;;6.50;2.35;;;;;;;9.49;100.00;100309.44;4707691;30;20101;-69
2023/01/12 06:56:29;;;;;;;5.80;2.08;;;;;;;9.67;100.00;100321.69;4699611;30;20427;-69
2023/01/12 06:58:56;;;;;;;6.13;1.75;;;;;;;9.66;100.00;100316.50;4714481;30;20131;-68
2023/01/12 07:01:25;;;;;;;6.82;2.30;;;;;;;9.53;100.00;100309.72;4714312;30;20061;-69
2023/01/12 07:03:53;;;;;;;4.35;1.80;;;;;;;9.53;100.00;100320.59;4712876;30;20514;-69
2023/01/12 07:06:21;;;;;;;10.10;2.05;;;;;;;9.53;100.00;100334.22;4714131;30;20067;-69
2023/01/12 07:08:49;;;;;;;6.07;1.90;;;;;;;9.44;100.00;100316.81;4712207;30;20069;-69
2023/01/12 07:11:16;;;;;;;3.90;1.58;;;;;;;9.46;100.00;100333.66;4715074;30;20068;-68
2023/01/12 07:13:44;;;;;;;5.28;1.75;;;;;;;9.50;100.00;100321.97;4715084;30;20092;-68
2023/01/12 07:16:12;;;;;;;9.93;2.50;;;;;;;9.58;100.00;100334.19;4717697;30;20049;-67
2023/01/12 07:18:40;;;;;;;4.28;1.75;;;;;;;9.54;100.00;100330.38;4701005;30;20056;-71
2023/01/12 07:21:09;;;;;;;4.05;1.80;;;;;;;9.54;100.00;100333.09;4718229;30;20061;-69
2023/01/12 07:23:37;;;;;;;4.07;1.58;;;;;;;9.61;100.00;100333.63;4717093;30;20116;-69
2023/01/12 07:26:05;;;;;;;7.10;1.92;;;;;;;9.53;100.00;100332.28;4717081;30;20061;-68
2023/01/12 07:28:33;;;;;;;6.70;1.90;;;;;;;9.58;100.00;100339.63;4716423;30;20061;-69
2023/01/12 07:31:03;;;;;;;6.50;2.05;;;;;;;9.62;100.00;100343.44;4718513;30;20124;-68
2023/01/12 07:33:31;;;;;;;3.08;1.60;;;;;;;9.57;100.00;100352.44;4688800;30;20049;-70
2023/01/12 07:36:00;;;;;;;5.28;1.90;;;;;;;9.52;100.00;100343.44;4718018;30;20388;-68
2023/01/12 07:38:28;;;;;;;4.40;1.80;;;;;;;9.44;100.00;100349.44;4717691;30;20092;-69
2023/01/12 07:41:03;;;;;;;5.40;2.10;;;;;;;9.68;100.00;100363.28;4716717;30;20152;-69
2023/01/12 07:43:32;;;;;;;6.20;1.92;;;;;;;9.53;100.00;100353.25;4702966;30;20108;-68
2023/01/12 07:46:00;;;;;;;3.30;1.50;;;;;;;9.49;100.00;100354.88;4717410;30;20057;-70
2023/01/12 07:48:29;;;;;;;5.43;1.80;;;;;;;9.49;100.00;100363.03;4716995;30;20061;-70
2023/01/12 07:50:58;;;;;;;2.45;1.33;;;;;;;9.42;100.00;100359.75;4720078;30;20511;-68
2023/01/12 07:53:26;;;;;;;4.75;1.52;;;;;;;9.35;100.00;100355.41;4721145;30;20060;-69
2023/01/12 07:55:54;;;;;;;6.90;1.90;;;;;;;9.52;100.00;100367.91;4703250;30;20598;-70
2023/01/12 07:58:22;;;;;;;3.53;1.67;;;;;;;9.77;100.00;100373.34;4717826;30;20138;-67
2023/01/12 08:00:50;;;;;;;3.67;1.65;;;;;;;9.61;100.00;100371.72;4687948;30;20511;-67
2023/01/12 08:03:18;;;;;;;3.08;1.55;;;;;;;9.56;100.00;100369.00;4716667;30;20088;-70
2023/01/12 08:05:45;;;;;;;5.32;1.73;;;;;;;9.55;100.00;100378.28;4716621;30;20053;-69
2023/01/12 08:08:13;;;;;;;6.32;2.40;;;;;;;9.55;100.00;100376.34;4715678;30;20074;-69
2023/01/12 08:10:42;;;;;;;3.75;1.77;;;;;;;9.50;100.00;100378.25;4721387;30;20053;-69
2023/01/12 08:13:10;;;;;;;6.32;1.70;;;;;;;9.56;100.00;100379.88;4721039;30;20076;-68
2023/01/12 08:15:41;;;;;;;4.43;1.80;;;;;;;9.54;100.00;100392.94;4720294;30;20095;-68
2023/01/12 08:18:13;;;;;;;6.38;2.20;;;;;;;9.52;100.00;100385.03;4719882;30;20053;-68
2023/01/12 08:20:41;;;;;;;7.90;2.65;;;;;;;9.62;100.00;100383.41;4705046;30;20055;-68
2023/01/12 08:23:21;;;;;;;3.40;1.30;;;;;;;9.47;100.00;100376.06;4704733;30;20388;-66
2023/01/12 08:25:55;;;;;;;6.05;2.20;;;;;;;9.47;100.00;100400.53;4690240;30;20064;-66
2023/01/12 08:28:29;;;;;;;4.65;1.75;;;;;;;9.43;100.00;100392.13;4719003;30;20473;-66
2023/01/12 08:30:57;;;;;;;4.65;1.70;;;;;;;9.44;100.00;100390.22;4719708;30;20053;-66
2023/01/12 08:33:25;;;;;;;3.30;1.50;;;;;;;9.44;100.00;100403.81;4720178;30;20514;-67
2023/01/12 08:35:53;;;;;;;3.88;1.83;;;;;;;9.47;100.00;100386.94;4701276;30;20058;-67
2023/01/12 08:38:21;;;;;;;4.18;1.55;;;;;;;9.53;100.00;100386.69;4702612;30;20111;-66
2023/01/12 08:46:21;;;;;;;2.17;1.50;;;;;;;9.64;100.00;100392.13;4702807;30;20499;-66
2023/01/12 08:48:49;;;;;;;5.75;1.98;;;;;;;9.57;100.00;100408.72;4673367;30;20065;-66
2023/01/12 08:51:17;;;;;;;2.90;1.45;;;;;;;9.74;100.00;100408.44;4702053;30;20088;-67
2023/01/12 08:53:44;;;;;;;4.20;1.67;;;;;;;9.62;100.00;100416.91;4687692;30;20491;-66
2023/01/12 08:56:12;;;;;;;5.90;1.98;;;;;;;9.58;100.00;100408.44;4709980;30;20057;-66
2023/01/12 08:58:40;;;;;;;10.82;3.35;;;;;;;9.56;100.00;100409.81;4728039;30;20058;-67
2023/01/12 09:01:10;;;;;;;12.75;3.40;;;;;;;9.93;100.00;100403.25;4725109;30;20392;-66
2023/01/12 09:03:38;;;;;;;12.30;4.05;;;;;;;9.81;100.00;100407.09;4703301;30;20471;-67
2023/01/12 09:06:24;;;;;;;5.60;1.95;;;;;;;9.74;100.00;100403.84;4727876;30;20218;-67
2023/01/12 09:08:56;;;;;;;5.07;2.30;;;;;;;9.77;100.00;100408.72;4714364;30;20121;-67
2023/01/12 09:11:25;;;;;;;14.63;3.65;;;;;;;9.82;100.00;100411.44;4723853;30;20089;-67
2023/01/12 09:13:54;;;;;;;8.02;2.80;;;;;;;9.73;100.00;100410.34;4704700;30;20152;-66
2023/01/12 09:16:23;;;;;;;7.35;2.58;;;;;;;9.71;100.00;100407.06;4689991;30;20076;-67
2023/01/12 09:18:50;;;;;;;5.32;2.22;;;;;;;9.72;100.00;100416.06;4719172;30;20065;-67
2023/01/12 09:21:21;;;;;;;9.88;3.33;;;;;;;9.78;100.00;100410.34;4693940;30;20060;-68
2023/01/12 09:23:49;;;;;;;3.72;1.58;;;;;;;9.79;100.00;100412.00;4719022;30;20119;-67
2023/01/12 09:26:19;;;;;;;5.18;1.88;;;;;;;9.74;100.00;100424.75;4675618;30;20053;-67
2023/01/12 09:28:47;;;;;;;13.30;3.65;;;;;;;9.76;100.00;100417.94;4719886;30;20380;-66
2023/01/12 09:31:20;;;;;;;9.65;2.95;;;;;;;9.80;100.00;100419.06;4703868;30;20063;-67
2023/01/12 09:33:48;;;;;;;10.70;3.10;;;;;;;9.88;100.00;100414.16;4704061;30;20053;-68
2023/01/12 09:36:20;;;;;;;8.07;2.70;;;;;;;9.90;100.00;100420.94;4700176;30;20548;-67
2023/01/12 09:38:48;;;;;;;8.73;3.08;;;;;;;9.87;100.00;100424.22;4701588;30;20504;-68
2023/01/12 09:47:52;;;;;;;4.70;2.05;;;;;;;9.88;100.00;100446.81;4700917;30;20050;-67
2023/01/12 09:50:43;;;;;;;8.98;2.67;;;;;;;9.93;100.00;100449.50;4686360;30;20152;-66
2023/01/12 09:53:32;;;;;;;3.65;1.50;;;;;;;9.78;100.00;100448.44;4686750;30;20400;-65
2023/01/12 09:56:24;;;;;;;6.35;2.25;;;;;;;9.79;100.00;100460.97;4709604;30;20057;-66
2023/01/12 09:59:14;;;;;;;3.15;1.48;;;;;;;9.82;100.00;100454.97;4718087;30;20053;-66
2023/01/12 10:01:45;;;;;;;6.65;2.08;;;;;;;9.84;100.00;100459.31;4703561;30;20057;-66
2023/01/12 10:04:13;;;;;;;3.58;1.80;;;;;;;9.81;100.00;100456.06;4700372;30;20061;-66
2023/01/12 10:06:41;;;;;;;4.57;2.10;;;;;;;9.80;100.00;100448.97;4716764;30;20063;-66
2023/01/12 10:09:15;;;;;;;6.45;2.38;;;;;;;9.90;100.00;100456.31;4703138;30;20077;-67
2023/01/12 10:11:53;;;;;;;5.38;2.20;;;;;;;9.90;100.00;100475.38;4717429;30;20136;-67
2023/01/12 10:14:36;;;;;;;12.43;3.45;;;;;;;9.95;100.00;100463.69;4702702;30;20061;-67
2023/01/12 10:17:35;;;;;;;4.63;2.17;;;;;;;10.06;100.00;100462.59;4703980;30;20061;-67
2023/01/12 10:20:28;;;;;;;7.60;2.95;;;;;;;10.06;100.00;100464.50;4679286;30;20061;-66
2023/01/12 10:23:13;;;;;;;9.70;3.17;;;;;;;9.96;100.00;100466.13;4700162;30;20045;-66
2023/01/12 10:26:10;;;;;;;9.10;2.75;;;;;;;9.94;100.00;100472.94;4703746;30;20571;-66
2023/01/12 10:28:38;;;;;;;1.42;1.20;;;;;;;9.88;100.00;100465.84;4710693;30;20084;-67
2023/01/12 10:31:08;;;;;;;7.47;2.83;;;;;;;9.96;100.00;100478.94;4718756;30;20045;-67
2023/01/12 10:33:35;;;;;;;4.68;1.38;;;;;;;9.96;100.00;100478.94;4717996;30;20099;-67
2023/01/12 10:36:16;;;;;;;1.35;0.60;;;;;;;9.87;100.00;100477.84;4717655;30;20049;-66
2023/01/12 10:38:59;;;;;;;13.52;3.90;;;;;;;9.93;100.00;100469.41;4049721;30;10000355;-66
2023/01/12 10:41:32;;;;;;;3.17;1.60;;;;;;;9.93;100.00;100471.28;4713769;30;20063;-67
2023/01/12 10:43:59;;;;;;;2.58;1.42;;;;;;;9.87;100.00;100470.47;4714022;30;20061;-66
2023/01/12 10:46:30;;;;;;;3.45;1.77;;;;;;;9.87;100.00;100475.94;4714091;30;20510;-67
2023/01/12 10:49:20;;;;;;;2.15;1.17;;;;;;;9.87;100.00;100466.94;4712977;30;20131;-67
2023/01/12 10:51:52;;;;;;;4.57;1.48;;;;;;;9.84;100.00;100478.34;4715061;30;20064;-66
2023/01/12 10:54:30;;;;;;;1.63;1.08;;;;;;;9.78;100.00;100467.47;4713550;30;20053;-68
2023/01/12 10:57:20;;;;;;;3.33;1.13;;;;;;;9.85;100.00;100480.81;4713860;30;20115;-67
2023/01/12 10:59:57;;;;;;;8.18;2.70;;;;;;;9.92;100.00;100472.38;4713554;30;20064;-68
2023/01/12 11:02:28;;;;;;;3.28;1.60;;;;;;;9.91;100.00;100474.31;4713797;30;20059;-66
2023/01/12 11:04:55;;;;;;;4.80;2.08;;;;;;;9.93;100.00;100472.13;4702692;30;20071;-65
2023/01/12 11:07:30;;;;;;;10.13;2.63;;;;;;;10.07;100.00;100472.38;4717133;30;20053;-67
2023/01/12 11:10:17;;;;;;;6.45;2.42;;;;;;;10.04;100.00;100467.47;4717241;30;20114;-68
2023/01/12 11:12:57;;;;;;;2.50;1.50;;;;;;;10.03;100.00;100463.16;4717698;30;20135;-67
2023/01/12 11:15:26;;;;;;;6.40;2.22;;;;;;;9.93;100.00;100466.69;4702778;30;20116;-68
2023/01/12 11:18:10;;;;;;;3.70;1.70;;;;;;;9.85;100.00;100469.13;4717702;30;20132;-68
2023/01/12 11:20:43;;;;;;;2.20;1.75;;;;;;;9.76;100.00;100466.94;4717924;30;20140;-66
2023/01/12 11:23:26;;;;;;;2.45;1.80;;;;;;;9.76;100.00;100461.47;4717085;30;20478;-67
2023/01/12 11:25:54;;;;;;;1.98;1.30;;;;;;;9.74;100.00;100458.25;4702687;30;20123;-67
2023/01/12 11:28:37;;;;;;;2.40;1.13;;;;;;;9.86;100.00;100459.84;4702757;30;20080;-67
2023/01/12 11:31:34;;;;;;;6.68;2.40;;;;;;;9.97;100.00;100458.78;4717041;30;20064;-66
2023/01/12 11:34:16;;;;;;;2.97;1.60;;;;;;;9.93;100.00;100458.53;4716656;30;20088;-67
2023/01/12 11:36:50;;;;;;;1.33;1.08;;;;;;;10.03;100.00;100454.97;4717042;30;20064;-68
2023/01/12 11:39:23;;;;;;;4.03;1.45;;;;;;;10.08;100.00;100463.13;4716635;30;20091;-67
2023/01/12 11:44:49;;;;;;;3.00;1.58;;;;;;;10.02;100.00;100464.22;4702737;30;20418;-67
2023/01/12 11:47:33;;;;;;;2.10;1.17;;;;;;;10.15;100.00;100458.22;4717825;30;20057;-66
2023/01/12 11:50:19;;;;;;;4.25;1.75;;;;;;;10.10;100.00;100460.97;4716871;30;20514;-66
2023/01/12 11:52:46;;;;;;;1.85;1.08;;;;;;;10.02;100.00;100453.31;4702548;30;20152;-67
2023/01/12 11:55:18;;;;;;;3.65;1.90;;;;;;;10.06;100.00;100462.59;4699841;30;20129;-67
2023/01/12 11:58:11;;;;;;;2.05;1.20;;;;;;;10.19;100.00;100464.75;4700020;30;20080;-67
2023/01/12 12:00:53;;;;;;;3.38;1.83;;;;;;;10.23;100.00;100454.94;4713535;30;20621;-67
2023/01/12 12:03:42;;;;;;;3.33;1.90;;;;;;;10.19;100.00;100451.13;4720449;30;20091;-68
2023/01/12 12:06:15;;;;;;;2.30;0.85;;;;;;;10.29;100.00;100446.78;4720313;30;20065;-67
2023/01/12 12:08:49;;;;;;;3.92;1.83;;;;;;;10.27;100.00;100448.94;4721038;30;20087;-67
2023/01/12 12:11:26;;;;;;;1.70;1.13;;;;;;;10.17;100.00;100450.59;4720180;30;20084;-67
2023/01/12 12:14:03;;;;;;;4.47;1.80;;;;;;;10.22;100.00;100450.59;4721165;30;20100;-67
2023/01/12 12:16:56;;;;;;;5.88;2.08;;;;;;;10.19;100.00;100442.97;4721348;30;20083;-67
2023/01/12 12:19:47;;;;;;;1.88;1.13;;;;;;;10.22;100.00;100442.44;4719881;30;20073;-67
2023/01/12 12:22:40;;;;;;;1.98;1.23;;;;;;;10.13;100.00;100433.19;4721059;30;20109;-66